Time;durP1;ratioP1;P1;durP2;ratioP2;P2;SDS_P1;SDS_P2;PMS_P1;PMS_P2;Temp;Humidity;BMP_temperature;BMP_pressure;BME280_temperature;BME280_humidity;BME280_pressure;Samples;Min_cycle;Max_cycle;Signal;HPM_P1;HPM_P2
2022/07/18 00:00:27;;;;;;;;;9.33;8.00;;;;;-146.67;22.88;73739.34;5085124;27;62143;-77
2022/07/18 00:02:52;;;;;;;;;9.25;7.25;;;;;-146.67;22.98;73737.34;5084827;27;61804;-77
2022/07/18 00:05:17;;;;;;;;;7.00;7.00;;;;;-146.67;23.35;73751.31;5066868;28;61736;-77
2022/07/18 00:07:43;;;;;;;;;13.50;6.50;;;;;-146.67;23.37;73751.31;5085344;28;61973;-77
2022/07/18 00:10:08;;;;;;;;;7.00;7.00;;;;;-146.67;23.51;73751.31;5085212;27;61759;-77
2022/07/18 00:12:34;;;;;;;;;9.25;6.50;;;;;-146.67;23.25;73755.31;5084376;28;62131;-77
2022/07/18 00:14:59;;;;;;;;;9.33;6.33;;;;;-146.67;23.56;73759.28;5066613;27;61813;-77
2022/07/18 00:17:25;;;;;;;;;9.00;8.00;;;;;-146.67;23.25;73771.28;5085100;28;61791;-77
2022/07/18 00:19:51;;;;;;;;;8.00;6.00;;;;;-146.67;23.55;73775.25;5085204;27;61823;-77
2022/07/18 00:22:16;;;;;;;;;8.75;6.75;;;;;-146.67;23.56;73771.28;5084076;27;62721;-77
2022/07/18 00:24:41;;;;;;;;;7.25;7.00;;;;;-146.67;23.54;73765.28;5064927;28;61917;-77
2022/07/18 00:27:07;;;;;;;;;10.75;6.50;;;;;-146.67;23.33;73771.28;5085039;28;61936;-77
2022/07/18 00:29:37;;;;;;;;;8.75;7.00;;;;;-146.67;23.55;73775.25;5066424;28;61914;-77
2022/07/18 00:32:07;;;;;;;;;8.00;6.00;;;;;-146.67;23.40;73773.28;5084403;27;61930;-76
2022/07/18 00:34:34;;;;;;;;;8.50;7.25;;;;;-146.67;23.49;73779.25;5084440;27;61680;-76
2022/07/18 00:36:59;;;;;;;;;9.50;8.25;;;;;-146.67;23.78;73783.25;5084802;28;61824;-77
2022/07/18 00:39:25;;;;;;;;;7.25;7.00;;;;;-146.67;23.62;73787.25;5066480;28;62140;-77
2022/07/18 00:41:51;;;;;;;;;8.00;8.00;;;;;-146.67;23.86;73791.22;5065733;28;63587;-77
2022/07/18 00:44:22;;;;;;;;;11.00;6.50;;;;;-146.67;24.27;73793.22;5084092;27;61980;-77
2022/07/18 00:46:53;;;;;;;;;8.50;6.50;;;;;-146.67;23.88;73805.22;5066331;28;61897;-77
2022/07/18 00:49:19;;;;;;;;;11.25;6.00;;;;;-146.67;23.68;73809.19;5084797;27;61759;-76
2022/07/18 00:51:45;;;;;;;;;9.25;6.00;;;;;-146.67;23.94;73809.19;5065142;28;64096;-77
2022/07/18 00:54:10;;;;;;;;;7.00;6.50;;;;;-146.67;23.99;73813.19;5084446;28;61844;-77
2022/07/18 00:56:36;;;;;;;;;7.75;7.75;;;;;-146.67;23.82;73821.19;5084468;28;61866;-77
2022/07/18 00:59:02;;;;;;;;;8.25;7.25;;;;;-146.67;24.11;73821.19;5066107;28;61876;-76
2022/07/18 01:01:43;;;;;;;;;6.25;6.00;;;;;-146.67;24.10;73831.16;5083713;28;63680;-76
2022/07/18 01:04:22;;;;;;;;;7.25;6.75;;;;;-146.67;24.14;73833.16;5084328;27;61863;-77
2022/07/18 01:06:50;;;;;;;;;8.75;7.25;;;;;-146.67;24.45;73841.13;5065994;28;61837;-76
2022/07/18 01:09:17;;;;;;;;;8.00;6.00;;;;;-146.67;24.17;73849.13;5084361;27;61746;-77
2022/07/18 01:11:45;;;;;;;;;8.25;7.25;;;;;-146.67;24.14;73853.13;5083290;28;62610;-77
2022/07/18 01:14:11;;;;;;;;;9.25;7.00;;;;;-146.67;24.33;73851.13;5084079;28;61825;-76
2022/07/18 01:16:36;;;;;;;;;9.25;6.50;;;;;-146.67;24.10;73855.09;5083971;28;61754;-77
2022/07/18 01:19:02;;;;;;;;;11.00;8.50;;;;;-146.67;24.48;73853.13;5084395;28;61897;-77
2022/07/18 01:21:28;;;;;;;;;9.75;8.00;;;;;-146.67;24.56;73859.09;5083223;27;61917;-77
2022/07/18 01:23:53;;;;;;;;;7.00;5.00;;;;;-146.67;24.45;73861.09;5082231;27;62039;-77
2022/07/18 01:26:19;;;;;;;;;8.50;7.25;;;;;-146.67;24.58;73875.06;5084230;28;61890;-77
2022/07/18 01:28:45;;;;;;;;;7.00;7.00;;;;;-146.67;24.54;73883.06;5083969;28;61876;-77
2022/07/18 01:31:11;;;;;;;;;8.75;7.00;;;;;-146.67;24.55;73893.03;5083327;27;61857;-76
2022/07/18 01:33:37;;;;;;;;;8.00;8.00;;;;;-146.67;24.68;73889.03;5083822;27;61909;-76
2022/07/18 01:36:04;;;;;;;;;11.25;7.00;;;;;-146.67;24.45;73899.03;5083727;28;61821;-76
2022/07/18 01:38:31;;;;;;;;;8.25;8.25;;;;;-146.67;24.35;73891.03;5065816;27;62143;-76
2022/07/18 01:40:57;;;;;;;;;12.25;9.25;;;;;-146.67;24.62;73891.03;5082695;27;62861;-76
2022/07/18 01:43:24;;;;;;;;;10.75;9.50;;;;;-146.67;24.68;73889.03;5082845;28;61852;-77
2022/07/18 01:45:50;;;;;;;;;11.25;7.50;;;;;-146.67;24.76;73897.03;5083390;27;61880;-77
2022/07/18 01:48:15;;;;;;;;;8.00;8.00;;;;;-146.67;24.68;73903.00;5065588;28;61812;-76
2022/07/18 01:50:41;;;;;;;;;11.00;8.50;;;;;-146.67;24.86;73907.00;5082657;28;62745;-77
2022/07/18 01:53:07;;;;;;;;;8.50;7.00;;;;;-146.67;24.88;73903.00;5083488;27;61698;-76
2022/07/18 01:55:32;;;;;;;;;9.50;8.00;;;;;-146.67;24.71;73911.00;5083455;28;61898;-77
2022/07/18 01:57:58;;;;;;;;;8.75;8.00;;;;;-146.67;24.82;73909.00;5064916;28;61924;-77
2022/07/18 02:00:23;;;;;;;;;11.00;8.75;;;;;-146.67;25.08;73897.03;5082901;27;62646;-77
2022/07/18 02:02:48;;;;;;;;;8.50;8.50;;;;;-146.67;25.03;73907.00;5083473;28;61741;-77
2022/07/18 02:05:14;;;;;;;;;10.25;8.25;;;;;-146.67;24.82;73897.03;5064914;28;62347;-76
2022/07/18 02:07:42;;;;;;;;;8.75;8.75;;;;;-146.67;24.76;73901.03;5083516;27;61821;-77
2022/07/18 02:10:12;;;;;;;;;8.25;7.25;;;;;-146.67;24.91;73905.00;5082440;28;61689;-77
2022/07/18 02:12:38;;;;;;;;;8.25;7.75;;;;;-146.67;25.08;73911.00;5082918;28;61975;-77
2022/07/18 02:15:06;;;;;;;;;8.75;8.50;;;;;-146.67;24.90;73926.97;5064755;28;61843;-77
2022/07/18 02:17:32;;;;;;;;;11.00;7.00;;;;;-146.67;24.95;73932.97;5064982;28;61852;-77
2022/07/18 02:19:57;;;;;;;;;9.75;9.25;;;;;-146.67;24.92;73936.94;5082367;28;61878;-77
2022/07/18 02:22:23;;;;;;;;;8.75;7.50;;;;;-146.67;25.11;73928.97;5082586;28;61835;-77
2022/07/18 02:24:50;;;;;;;;;7.00;7.00;;;;;-146.67;24.93;73934.94;5082058;27;61868;-77
2022/07/18 02:27:15;;;;;;;;;4.75;4.75;;;;;-146.67;24.87;73940.94;5082759;28;61781;-76
2022/07/18 02:29:41;;;;;;;;;9.75;9.00;;;;;-146.67;24.96;73940.94;5082340;27;61767;-77
2022/07/18 02:32:06;;;;;;;;;8.00;8.00;;;;;-146.67;24.91;73944.94;5064455;28;61846;-76
2022/07/18 02:34:32;;;;;;;;;11.00;7.00;;;;;-146.67;24.95;73938.94;5083014;28;61928;-77
2022/07/18 02:36:58;;;;;;;;;8.25;8.00;;;;;-146.67;24.95;73938.94;5082928;27;61860;-77
2022/07/18 02:39:23;;;;;;;;;6.50;6.50;;;;;-146.67;24.78;73940.94;5082121;28;61865;-76
2022/07/18 02:41:49;;;;;;;;;7.75;7.25;;;;;-146.67;25.01;73950.94;5064348;28;62002;-76
2022/07/18 02:44:14;;;;;;;;;10.25;8.50;;;;;-146.67;25.15;73958.91;5082661;28;61852;-77
2022/07/18 02:46:41;;;;;;;;;7.00;7.00;;;;;-146.67;24.94;73962.91;5082864;28;61951;-77
2022/07/18 02:49:06;;;;;;;;;12.25;8.25;;;;;-146.67;25.12;73968.88;5081971;28;61766;-76
2022/07/18 02:51:32;;;;;;;;;8.25;8.25;;;;;-146.67;25.06;73978.88;5082460;28;62027;-77
2022/07/18 02:53:57;;;;;;;;;10.00;7.25;;;;;-146.67;25.19;73982.88;5064072;28;62037;-77
2022/07/18 02:56:22;;;;;;;;;11.75;8.25;;;;;-146.67;25.32;73986.84;5081480;28;61797;-76
2022/07/18 02:58:48;;;;;;;;;7.75;7.75;;;;;-146.67;24.96;74000.81;5082035;28;62751;-76
2022/07/18 03:01:13;;;;;;;;;9.00;6.00;;;;;-146.67;25.45;73994.84;5082304;27;62063;-77
2022/07/18 03:03:39;;;;;;;;;8.75;7.50;;;;;-146.67;25.47;74006.81;5064165;28;61872;-77
2022/07/18 03:06:04;;;;;;;;;14.00;11.75;;;;;-146.67;25.44;74004.81;5082631;28;61757;-77
2022/07/18 03:08:30;;;;;;;;;9.75;8.25;;;;;-146.67;25.31;74008.81;5081716;27;62770;-77
2022/07/18 03:10:55;;;;;;;;;13.75;9.50;;;;;-146.67;25.25;74018.78;5063904;28;61909;-77
2022/07/18 03:13:21;;;;;;;;;14.25;12.50;;;;;-146.67;25.42;74020.78;5082123;28;62117;-77
2022/07/18 03:15:46;;;;;;;;;16.25;13.25;;;;;-146.67;25.18;74014.81;5082539;28;61740;-77
2022/07/18 03:18:11;;;;;;;;;12.50;11.25;;;;;-146.67;25.54;74010.81;5081757;28;62605;-76
2022/07/18 03:20:37;;;;;;;;;13.00;10.75;;;;;-146.67;25.38;74008.81;5063311;28;61781;-77
2022/07/18 03:23:07;;;;;;;;;13.50;13.50;;;;;-146.67;25.34;74010.81;5080545;28;62312;-77
2022/07/18 03:25:32;;;;;;;;;18.50;12.50;;;;;-146.67;25.29;74020.78;5082031;28;61891;-77
2022/07/18 03:27:58;;;;;;;;;12.25;12.25;;;;;-146.67;25.27;74028.78;5081633;28;62602;-76
2022/07/18 03:30:23;;;;;;;;;15.25;12.50;;;;;-146.67;25.39;74034.75;5081913;28;61813;-77
2022/07/18 03:32:49;;;;;;;;;13.75;12.00;;;;;-146.67;25.61;74032.75;5082288;28;61643;-76
2022/07/18 03:35:14;;;;;;;;;14.75;11.25;;;;;-146.67;25.52;74024.78;5063950;28;62152;-76
2022/07/18 03:37:40;;;;;;;;;11.50;11.25;;;;;-146.67;25.52;74022.78;5081276;28;62925;-76
2022/07/18 03:40:06;;;;;;;;;14.00;12.50;;;;;-146.67;25.54;74028.78;5081986;28;61814;-77
2022/07/18 03:42:31;;;;;;;;;17.75;13.75;;;;;-146.67;25.17;74034.75;5081577;28;62118;-77
2022/07/18 03:44:57;;;;;;;;;22.00;13.00;;;;;-146.67;25.33;74038.75;5082051;28;61828;-76
2022/07/18 03:47:22;;;;;;;;;13.75;11.00;;;;;-146.67;25.75;74032.75;5081387;28;62208;-77
2022/07/18 03:49:48;;;;;;;;;12.00;11.00;;;;;-146.67;25.62;74034.75;5081791;28;61711;-76
2022/07/18 03:52:13;;;;;;;;;14.00;9.75;;;;;-146.67;25.71;74034.75;5081629;27;62494;-77
2022/07/18 03:54:38;;;;;;;;;12.25;9.50;;;;;-146.67;25.61;74046.75;5081723;28;61770;-77
2022/07/18 03:57:04;;;;;;;;;13.00;11.50;;;;;-146.67;25.51;74050.72;5081309;28;61954;-77
2022/07/18 03:59:29;;;;;;;;;10.00;9.50;;;;;-146.67;25.54;74052.72;5063490;28;61753;-77
2022/07/18 04:01:54;;;;;;;;;9.25;9.00;;;;;-146.67;25.54;74060.72;5081901;28;61994;-76
2022/07/18 04:04:21;;;;;;;;;10.00;10.00;;;;;-146.67;25.70;74058.72;5081706;28;61769;-77
2022/07/18 04:06:46;;;;;;;;;10.25;10.00;;;;;-146.67;25.73;74062.72;5081845;28;62638;-77
2022/07/18 04:09:12;;;;;;;;;11.00;8.00;;;;;-146.67;25.71;74062.72;5066765;28;62195;-77
2022/07/18 04:11:37;;;;;;;;;13.75;7.50;;;;;-146.67;25.90;74062.72;5066812;28;61859;-76
2022/07/18 04:14:03;;;;;;;;;8.50;7.25;;;;;-146.67;25.68;74060.72;5067216;28;61854;-77
2022/07/18 04:16:28;;;;;;;;;9.00;4.00;;;;;-146.67;25.77;74066.69;5084406;27;62266;-76
2022/07/18 04:18:53;;;;;;;;;12.75;9.25;;;;;-146.67;25.53;74066.69;5084989;28;61689;-77
2022/07/18 04:21:19;;;;;;;;;13.75;10.50;;;;;-146.67;25.56;74070.69;5084721;28;62460;-77
2022/07/18 04:23:44;;;;;;;;;10.75;8.75;;;;;-146.67;25.68;74066.69;5083796;28;61736;-76
2022/07/18 04:26:10;;;;;;;;;10.50;9.25;;;;;-146.67;26.02;74062.72;5084697;27;61912;-78
2022/07/18 04:28:36;;;;;;;;;13.75;8.75;;;;;-146.67;25.82;74066.69;5084801;27;61936;-77
2022/07/18 04:31:01;;;;;;;;;10.75;10.00;;;;;-146.67;25.43;74060.72;5085000;27;61828;-76
2022/07/18 04:33:27;;;;;;;;;14.00;10.75;;;;;-146.67;25.31;74060.72;5085156;28;61725;-76
2022/07/18 04:35:53;;;;;;;;;10.50;9.75;;;;;-146.67;25.56;74058.72;5083956;27;62148;-76
2022/07/18 04:38:18;;;;;;;;;10.00;8.25;;;;;-146.67;25.56;74048.75;5084773;28;61914;-77
2022/07/18 04:40:43;;;;;;;;;12.00;10.00;;;;;-146.67;25.68;74042.75;5084627;28;62024;-77
2022/07/18 04:43:09;;;;;;;;;12.50;10.75;;;;;-146.67;25.79;74030.78;5085026;28;61765;-77
2022/07/18 04:45:36;;;;;;;;;13.75;8.75;;;;;-146.67;25.41;74026.78;5083723;27;61770;-76
2022/07/18 04:48:06;;;;;;;;;8.00;8.00;;;;;-146.67;25.74;74028.78;5084665;27;61852;-77
2022/07/18 04:50:32;;;;;;;;;10.50;8.25;;;;;-146.67;25.71;74024.78;5084395;28;61762;-77
2022/07/18 04:52:58;;;;;;;;;8.75;8.75;;;;;-146.67;25.82;74018.78;5084488;27;61755;-77
2022/07/18 04:55:25;;;;;;;;;11.50;10.00;;;;;-146.67;25.82;74010.81;5083863;27;62888;-77
2022/07/18 04:57:52;;;;;;;;;12.50;10.25;;;;;-146.67;25.88;74008.81;5084301;28;61820;-77
2022/07/18 05:00:24;;;;;;;;;11.25;9.00;;;;;-146.67;25.82;74012.81;5084347;27;61826;-77
2022/07/18 05:02:51;;;;;;;;;9.00;8.00;;;;;-146.67;25.97;74004.81;5066136;28;61793;-76
2022/07/18 05:05:18;;;;;;;;;9.00;9.00;;;;;-146.67;25.71;73998.84;5083612;27;62121;-76
2022/07/18 05:07:45;;;;;;;;;9.25;8.00;;;;;-146.67;25.60;73988.84;5084059;27;61714;-76
2022/07/18 05:10:13;;;;;;;;;9.50;9.50;;;;;-146.67;25.86;73980.88;5084426;28;62114;-76
2022/07/18 05:12:41;;;;;;;;;14.00;9.50;;;;;-146.67;26.02;73968.88;5084250;28;62008;-77
2022/07/18 05:15:08;;;;;;;;;10.50;8.00;;;;;-146.67;25.84;73952.91;5083644;28;63010;-77
2022/07/18 05:17:34;;;;;;;;;17.50;10.25;;;;;-146.67;25.96;73948.94;5065630;28;61905;-77
2022/07/18 05:19:59;;;;;;;;;11.00;8.75;;;;;-146.67;25.99;73936.94;5064625;28;62056;-77
2022/07/18 05:22:25;;;;;;;;;8.00;6.25;;;;;-146.67;26.03;73932.97;5083807;28;61828;-77
2022/07/18 05:24:51;;;;;;;;;8.75;8.75;;;;;-146.67;25.78;73934.94;5064141;28;63987;-76
2022/07/18 05:27:17;;;;;;;;;10.00;9.50;;;;;-146.67;25.97;73940.94;5083939;27;62342;-76
2022/07/18 05:29:42;;;;;;;;;7.75;7.75;;;;;-146.67;25.79;73942.94;5084187;28;61888;-76
2022/07/18 05:32:08;;;;;;;;;11.50;9.50;;;;;-146.67;25.52;73952.91;5084268;27;62311;-76
2022/07/18 05:34:34;;;;;;;;;13.25;10.00;;;;;-146.67;25.77;73950.94;5082961;27;62901;-76
2022/07/18 05:36:59;;;;;;;;;7.75;7.75;;;;;-146.67;25.44;73942.94;5065307;28;61807;-77
2022/07/18 05:39:25;;;;;;;;;11.50;9.75;;;;;-146.67;25.37;73934.94;5084035;28;62103;-76
2022/07/18 05:41:52;;;;;;;;;12.50;6.50;;;;;-146.67;25.35;73913.00;5083921;28;61904;-76
2022/07/18 05:44:19;;;;;;;;;14.25;12.50;;;;;-146.67;25.39;73899.03;5064686;28;63703;-76
2022/07/18 05:46:45;;;;;;;;;11.75;10.75;;;;;-146.67;25.02;73889.03;5083834;28;61921;-77
2022/07/18 05:49:11;;;;;;;;;6.75;6.75;;;;;-146.67;25.16;73875.06;5083216;27;62075;-76
2022/07/18 05:51:36;;;;;;;;;10.25;8.00;;;;;-146.67;25.12;73845.13;5065284;28;61898;-76
2022/07/18 05:54:01;;;;;;;;;10.50;8.25;;;;;-146.67;24.89;73821.19;5064721;28;64744;-76
2022/07/18 05:56:27;;;;;;;;;11.75;8.75;;;;;-146.67;24.77;73787.25;5083243;28;61726;-76
2022/07/18 05:58:52;;;;;;;;;11.00;9.75;;;;;-146.67;24.73;73781.25;5083448;28;61762;-76
2022/07/18 06:01:19;;;;;;;;;8.00;6.00;;;;;-146.67;24.78;73753.31;5083732;28;61655;-76
2022/07/18 06:03:46;;;;;;;;;13.00;7.25;;;;;-146.67;24.25;73727.34;5082491;27;61889;-76
2022/07/18 06:06:12;;;;;;;;;7.25;6.25;;;;;-146.67;24.17;73721.38;5064744;28;61923;-77
2022/07/18 06:08:38;;;;;;;;;7.75;5.25;;;;;-146.67;23.88;73719.38;5083326;28;61934;-76
2022/07/18 06:11:06;;;;;;;;;11.00;6.50;;;;;-146.67;23.80;73717.38;5083069;28;61781;-76
2022/07/18 06:13:32;;;;;;;;;6.25;6.00;;;;;-146.67;24.11;73707.41;5082665;27;61691;-76
2022/07/18 06:15:57;;;;;;;;;7.00;6.00;;;;;-146.67;24.25;73669.47;5083099;28;61756;-76
2022/07/18 06:18:23;;;;;;;;;7.50;5.75;;;;;-146.67;24.08;73643.53;5082873;27;61699;-77
2022/07/18 06:20:48;;;;;;;;;7.00;6.25;;;;;-146.67;23.68;73625.56;5083206;27;62099;-77
2022/07/18 06:23:14;;;;;;;;;5.75;5.00;;;;;-146.67;24.00;73595.63;5081093;28;61801;-74
2022/07/18 06:25:39;;;;;;;;;7.00;6.00;;;;;-146.67;23.76;73565.69;5064453;28;61865;-74
2022/07/18 06:28:04;;;;;;;;;8.25;7.00;;;;;-146.67;23.25;73481.84;5083220;27;61794;-77
2022/07/18 06:30:30;;;;;;;;;6.00;4.50;;;;;-146.67;22.88;73427.97;5083395;28;61994;-77
2022/07/18 06:32:56;;;;;;;;;6.33;5.33;;;;;-146.67;22.82;73435.94;5082305;27;61752;-77
2022/07/18 06:35:21;;;;;;;;;7.75;7.00;;;;;-146.67;23.23;73465.88;5082904;28;62072;-74
2022/07/18 06:37:47;;;;;;;;;6.00;4.50;;;;;-146.67;23.29;73469.88;5082852;27;61777;-74
2022/07/18 06:40:13;;;;;;;;;7.50;5.25;;;;;-146.67;23.13;73479.84;5083021;28;62087;-74
2022/07/18 06:42:38;;;;;;;;;7.00;5.00;;;;;-146.67;23.26;73471.88;5082282;27;61852;-74
2022/07/18 06:45:05;;;;;;;;;6.50;6.50;;;;;-146.67;23.02;73459.91;5082634;28;61895;-74
2022/07/18 06:47:30;;;;;;;;;6.25;6.25;;;;;-146.67;23.41;73467.88;5082866;28;61805;-77
2022/07/18 06:49:56;;;;;;;;;7.00;7.00;;;;;-146.67;23.45;73479.84;5064499;28;61881;-74
2022/07/18 06:52:21;;;;;;;;;9.00;7.00;;;;;-146.67;23.01;73487.84;5081806;28;61903;-74
2022/07/18 06:54:47;;;;;;;;;7.75;7.75;;;;;-146.67;22.96;73497.81;5082820;27;61795;-74
2022/07/18 06:57:12;;;;;;;;;9.50;5.00;;;;;-146.67;23.23;73517.78;5082454;27;62413;-74
2022/07/18 06:59:38;;;;;;;;;6.75;6.00;;;;;-146.67;23.14;73533.75;5064629;28;61766;-74
2022/07/18 07:02:04;;;;;;;;;9.25;7.25;;;;;-146.67;23.23;73523.75;5081894;28;61766;-74
2022/07/18 07:04:29;;;;;;;;;6.33;6.00;;;;;-146.67;23.26;73535.75;5064078;28;61910;-74
2022/07/18 07:06:55;;;;;;;;;7.00;6.33;;;;;-146.67;23.60;73533.75;5082689;28;61768;-78
2022/07/18 07:09:20;;;;;;;;;7.00;4.00;;;;;-146.67;23.59;73529.75;5082681;28;61997;-77
2022/07/18 07:11:46;;;;;;;;;4.67;4.67;;;;;-146.67;23.53;73529.75;5082020;28;62748;-77
2022/07/18 07:14:11;;;;;;;;;8.00;7.00;;;;;-146.67;23.63;73523.75;5082545;28;61861;-78
2022/07/18 07:16:37;;;;;;;;;6.33;5.00;;;;;-146.67;23.26;73523.75;5063888;28;62080;-77
2022/07/18 07:19:02;;;;;;;;;5.33;5.00;;;;;-146.67;23.36;73531.75;5082616;27;62059;-78
2022/07/18 07:21:27;;;;;;;;;6.75;5.50;;;;;-146.67;23.79;73523.75;5081341;28;61801;-74
2022/07/18 07:23:53;;;;;;;;;8.50;6.50;;;;;-146.67;23.65;73517.78;5070567;28;61926;-75
2022/07/18 07:26:19;;;;;;;;;7.25;5.75;;;;;-146.67;23.69;73513.78;5043630;28;63104;-75
2022/07/18 07:28:44;;;;;;;;;5.00;5.00;;;;;-146.67;23.62;73511.78;5044030;28;61759;-75
2022/07/18 07:31:10;;;;;;;;;7.00;7.00;;;;;-146.67;23.47;73507.78;5061076;28;61777;-75
2022/07/18 07:33:36;;;;;;;;;6.00;5.50;;;;;-146.67;23.69;73497.81;5061817;28;61690;-75
2022/07/18 07:36:03;;;;;;;;;7.33;5.33;;;;;-146.67;23.28;73501.81;5043962;28;62041;-75
2022/07/18 07:38:29;;;;;;;;;10.50;6.75;;;;;-146.67;23.23;73493.81;5061842;28;61955;-75
2022/07/18 07:40:55;;;;;;;;;7.00;6.25;;;;;-146.67;23.46;73493.81;5061110;28;61777;-75
2022/07/18 07:43:20;;;;;;;;;8.75;7.00;;;;;-146.67;22.87;73489.84;5046654;28;62066;-75
2022/07/18 07:45:52;;;;;;;;;10.00;7.25;;;;;-146.67;23.48;73475.88;5064985;28;62099;-75
2022/07/18 07:48:18;;;;;;;;;6.67;6.00;;;;;-146.67;23.45;73459.91;5065588;28;62147;-75
2022/07/18 07:50:44;;;;;;;;;5.00;5.00;;;;;-146.67;23.48;73465.88;5064420;28;61857;-78
2022/07/18 07:53:10;;;;;;;;;6.75;6.75;;;;;-146.67;22.99;73449.91;5065374;28;61707;-75
2022/07/18 07:55:35;;;;;;;;;5.67;5.67;;;;;-146.67;22.92;73445.91;5065091;28;61904;-75
2022/07/18 07:58:01;;;;;;;;;8.25;8.25;;;;;-146.67;23.05;73447.91;5065288;28;62018;-75
2022/07/18 08:00:27;;;;;;;;;12.00;6.00;;;;;-146.67;23.12;73445.91;5064245;28;61817;-75
2022/07/18 08:03:01;;;;;;;;;5.67;4.67;;;;;-146.67;23.19;73433.94;5046990;28;62036;-75
2022/07/18 08:05:29;;;;;;;;;10.33;5.67;;;;;-146.67;23.03;73429.97;5064918;28;61830;-75
2022/07/18 08:07:54;;;;;;;;;6.67;3.33;;;;;-146.67;22.91;73419.97;5046877;28;61814;-75
2022/07/18 08:10:20;;;;;;;;;6.33;5.00;;;;;-146.67;22.59;73425.97;5064090;28;63058;-75
2022/07/18 08:12:45;;;;;;;;;2.67;2.67;;;;;-146.67;22.59;73412.00;5064959;28;61834;-77
2022/07/18 08:15:11;;;;;;;;;7.00;2.00;;;;;-146.67;22.37;73410.00;5064877;28;61989;-75
2022/07/18 08:17:37;;;;;;;;;3.00;3.00;;;;;-146.67;22.09;73394.03;5046759;28;61847;-75
2022/07/18 08:20:03;;;;;;;;;5.50;5.00;;;;;-146.67;22.18;73390.03;5064360;28;61713;-75
2022/07/18 08:22:29;;;;;;;;;3.00;3.00;;;;;-146.67;22.34;73382.06;5064436;28;62479;-75
2022/07/18 08:24:54;;;;;;;;;4.67;4.00;;;;;-146.67;22.31;73378.06;5065617;28;61903;-77
2022/07/18 08:27:20;;;;;;;;;5.00;4.00;;;;;-146.67;21.90;73372.06;5065094;28;61920;-75
2022/07/18 08:29:45;;;;;;;;;4.00;3.00;;;;;-146.67;22.13;73362.09;5063858;28;61769;-75
2022/07/18 08:32:10;;;;;;;;;2.00;2.00;;;;;-146.67;22.21;73358.09;5064899;28;61750;-75
2022/07/18 08:34:36;;;;;;;;;4.00;4.00;;;;;-146.67;21.68;73358.09;5064697;28;61801;-75
2022/07/18 08:37:01;;;;;;;;;5.33;4.33;;;;;-146.67;22.17;73352.13;5064981;28;61774;-75
2022/07/18 08:39:27;;;;;;;;;4.00;3.00;;;;;-146.67;21.94;73352.13;5063952;28;61836;-76
2022/07/18 08:41:54;;;;;;;;;4.00;3.33;;;;;-146.67;21.83;73346.13;5064479;28;61794;-75
2022/07/18 08:44:20;;;;;;;;;5.33;2.67;;;;;-146.67;22.01;73340.13;5064351;28;61917;-76
2022/07/18 08:46:50;;;;;;;;;5.67;5.33;;;;;-146.67;21.74;73338.16;5046636;28;61759;-75
2022/07/18 08:49:16;;;;;;;;;4.33;4.33;;;;;-146.67;21.59;73326.16;5063924;28;62313;-75
2022/07/18 08:51:42;;;;;;;;;10.00;6.67;;;;;-146.67;21.76;73324.16;5064058;28;61829;-75
2022/07/18 08:54:08;;;;;;;;;6.33;5.67;;;;;-146.67;21.81;73314.19;5063416;28;61964;-75
2022/07/18 08:56:34;;;;;;;;;9.00;4.00;;;;;-146.67;21.53;73304.22;5064226;28;62114;-75
2022/07/18 08:59:02;;;;;;;;;6.00;6.00;;;;;-146.67;21.88;73300.22;5063810;28;62668;-75
2022/07/18 09:01:31;;;;;;;;;7.00;5.00;;;;;-146.67;21.77;73292.25;5064573;28;61709;-75
2022/07/18 09:04:16;;;;;;;;;6.33;3.67;;;;;-146.67;21.85;73290.25;5064265;28;62029;-75
2022/07/18 09:06:52;;;;;;;;;5.00;3.33;;;;;-146.67;21.71;73292.25;5064591;28;62084;-75
2022/07/18 09:09:18;;;;;;;;;3.67;3.67;;;;;-146.67;21.79;73274.28;5063680;28;62462;-75
2022/07/18 09:11:51;;;;;;;;;4.00;4.00;;;;;-146.67;21.72;73268.28;5063742;28;61853;-75
2022/07/18 09:14:40;;;;;;;;;4.00;4.00;;;;;-146.67;21.50;73262.31;5064143;28;61832;-75
2022/07/18 09:17:12;;;;;;;;;5.33;4.33;;;;;-146.67;21.38;73254.31;5064212;28;61724;-75
2022/07/18 09:19:40;;;;;;;;;3.00;1.67;;;;;-146.67;21.76;73250.31;5063705;28;61912;-75
2022/07/18 09:22:20;;;;;;;;;3.00;3.00;;;;;-146.67;21.71;73234.38;5063748;28;61834;-75
2022/07/18 09:25:16;;;;;;;;;5.67;4.67;;;;;-146.67;21.39;73226.38;5063337;28;62168;-75
2022/07/18 09:27:43;;;;;;;;;4.33;4.00;;;;;-146.67;21.36;73226.38;5062468;28;61739;-75
2022/07/18 09:30:23;;;;;;;;;4.00;4.00;;;;;-146.67;21.30;73220.38;5063255;28;61797;-75
2022/07/18 09:33:03;;;;;;;;;5.00;4.00;;;;;-146.67;21.51;73212.41;5063794;28;61746;-75
2022/07/18 09:35:36;;;;;;;;;9.33;5.00;;;;;-146.67;21.44;73208.41;5064005;28;62028;-75
2022/07/18 09:38:07;;;;;;;;;4.67;4.33;;;;;-146.67;21.29;73194.44;5063867;28;62193;-75
2022/07/18 09:40:42;;;;;;;;;5.00;3.00;;;;;-146.67;20.95;73190.44;5062729;28;62317;-75
2022/07/18 09:43:12;;;;;;;;;3.00;3.00;;;;;-146.67;21.02;73176.47;5063487;28;61870;-75
2022/07/18 09:45:43;;;;;;;;;3.00;3.00;;;;;-146.67;21.31;73176.47;5045227;28;61778;-75
2022/07/18 09:48:11;;;;;;;;;5.00;5.00;;;;;-146.67;20.96;73160.50;5063794;28;61706;-75
2022/07/18 09:50:49;;;;;;;;;3.00;3.00;;;;;-146.67;20.93;73144.56;5044541;28;64019;-76
2022/07/18 09:53:26;;;;;;;;;6.00;5.00;;;;;-146.67;20.82;73136.56;5045222;28;61923;-75
2022/07/18 09:55:56;;;;;;;;;5.00;3.67;;;;;-146.67;20.66;73120.59;5063064;28;61792;-75
2022/07/18 09:58:25;;;;;;;;;4.67;4.33;;;;;-146.67;20.82;73108.63;5045259;28;62039;-75
2022/07/18 10:00:51;;;;;;;;;3.33;3.33;;;;;-146.67;20.82;73096.66;5062928;28;62780;-75
2022/07/18 10:03:18;;;;;;;;;3.33;3.33;;;;;-146.67;20.47;73088.66;5063259;28;61964;-75
2022/07/18 10:05:46;;;;;;;;;3.33;3.33;;;;;-146.67;20.93;73072.69;5062791;28;61802;-75
2022/07/18 10:08:13;;;;;;;;;5.00;3.00;;;;;-146.67;20.32;73054.75;5063331;28;62087;-75
2022/07/18 10:10:40;;;;;;;;;3.33;3.33;;;;;-146.67;20.63;73040.78;5062170;28;62983;-75
2022/07/18 10:13:07;;;;;;;;;4.33;4.33;;;;;-146.67;20.50;73034.78;5063164;28;62000;-75
2022/07/18 10:15:37;;;;;;;;;6.00;3.00;;;;;-146.67;20.85;73020.81;5063222;28;61843;-75
2022/07/18 10:18:06;;;;;;;;;5.00;4.00;;;;;-146.67;20.33;73002.84;5063263;28;61935;-75
2022/07/18 10:20:43;;;;;;;;;3.00;3.00;;;;;-146.67;20.90;72986.88;5062298;28;61742;-75
2022/07/18 10:23:17;;;;;;;;;5.00;5.00;;;;;-146.67;20.36;72984.91;5044406;28;62054;-75
2022/07/18 10:25:43;;;;;;;;;2.67;2.33;;;;;-146.67;20.03;72962.94;5062636;28;61912;-75
2022/07/18 10:28:14;;;;;;;;;2.67;2.67;;;;;-146.67;20.37;72950.97;5063174;28;61940;-75
2022/07/18 10:30:49;;;;;;;;;3.33;3.33;;;;;-146.67;20.34;72935.00;5062469;28;61862;-75
2022/07/18 10:33:39;;;;;;;;;4.67;4.67;;;;;-146.67;20.73;72927.00;5061206;28;62069;-75
2022/07/18 10:36:09;;;;;;;;;4.67;3.00;;;;;-146.67;20.64;72899.06;5044782;28;62020;-75
2022/07/18 10:38:35;;;;;;;;;5.00;5.00;;;;;-146.67;20.28;72879.13;5062520;28;61799;-75
2022/07/18 10:41:06;;;;;;;;;9.00;5.00;;;;;-146.67;20.33;72869.13;5043250;28;63094;-75
2022/07/18 10:43:33;;;;;;;;;5.33;3.33;;;;;-146.67;20.25;72859.16;5062606;28;62003;-75
2022/07/18 10:46:01;;;;;;;;;6.00;4.00;;;;;-146.67;20.13;72849.19;5044734;28;61842;-75
2022/07/18 10:48:32;;;;;;;;;3.33;3.33;;;;;-146.67;20.33;72837.22;5062658;28;61779;-75
2022/07/18 10:51:01;;;;;;;;;5.00;5.00;;;;;-146.67;19.93;72825.25;5077139;27;63880;-75
2022/07/18 10:54:04;;;;;;;;;5.33;4.67;;;;;-146.67;20.33;72803.28;5062277;28;61810;-75
2022/07/18 10:56:36;;;;;;;;;8.00;6.33;;;;;-146.67;20.07;72799.28;5062297;28;61768;-76
2022/07/18 10:59:24;;;;;;;;;6.00;5.00;;;;;-146.67;19.83;72775.34;5078258;28;61706;-75
2022/07/18 11:01:53;;;;;;;;;3.67;3.67;;;;;-146.67;20.30;72761.38;5061935;28;61874;-75
2022/07/18 11:04:48;;;;;;;;;7.67;5.00;;;;;-146.67;20.24;72749.41;5044183;28;61797;-75
2022/07/18 11:07:15;;;;;;;;;5.00;3.67;;;;;-146.67;19.98;72739.44;5039413;28;62025;-75
2022/07/18 11:09:48;;;;;;;;;4.67;4.67;;;;;-146.67;20.20;72721.47;5044102;28;61784;-76
2022/07/18 11:12:19;;;;;;;;;6.67;5.67;;;;;-146.67;20.14;72715.47;5061720;28;62644;-75
2022/07/18 11:15:05;;;;;;;;;6.00;4.00;;;;;-146.67;19.71;72695.53;5062216;28;61932;-75